Time;durP1;ratioP1;P1;durP2;ratioP2;P2;SDS_P1;SDS_P2;PMS_P1;PMS_P2;Temp;Humidity;BMP_temperature;BMP_pressure;BME280_temperature;BME280_humidity;BME280_pressure;Samples;Min_cycle;Max_cycle;Signal;HPM_P1;HPM_P2
2022/07/23 00:02:58;;;;;;;5.22;4.32;;;;;;;;;;5112302;28;20112;-85
2022/07/23 00:05:25;;;;;;;7.15;4.97;;;;;;;;;;5111944;28;20502;-83
2022/07/23 00:07:51;;;;;;;6.55;4.75;;;;;;;;;;5093997;28;20107;-84
2022/07/23 00:10:17;;;;;;;6.05;4.45;;;;;;;;;;5112070;28;20107;-84
2022/07/23 00:12:43;;;;;;;8.30;4.63;;;;;;;;;;5112342;28;20027;-82
2022/07/23 00:15:10;;;;;;;7.18;4.70;;;;;;;;;;5112177;28;20028;-84
2022/07/23 00:17:36;;;;;;;8.55;5.10;;;;;;;;;;5112089;28;20049;-83
2022/07/23 00:20:03;;;;;;;6.80;4.90;;;;;;;;;;5112319;28;20027;-83
2022/07/23 00:22:29;;;;;;;7.60;4.88;;;;;;;;;;5112005;28;20027;-83
2022/07/23 00:24:55;;;;;;;6.75;4.72;;;;;;;;;;5112090;28;20055;-82
2022/07/23 00:27:21;;;;;;;5.57;4.45;;;;;;;;;;5112240;28;20031;-82
2022/07/23 00:29:47;;;;;;;7.32;4.57;;;;;;;;;;5111760;28;20081;-82
2022/07/23 00:32:13;;;;;;;6.30;4.65;;;;;;;;;;5111986;28;20077;-80
2022/07/23 00:34:39;;;;;;;7.30;4.97;;;;;;;;;;5111748;28;20030;-80
2022/07/23 00:37:06;;;;;;;6.07;4.97;;;;;;;;;;5115564;28;20500;-80
2022/07/23 00:39:32;;;;;;;7.95;4.82;;;;;;;;;;5115507;28;20020;-82
2022/07/23 00:41:58;;;;;;;10.00;5.40;;;;;;;;;;5115628;28;20027;-82
2022/07/23 00:44:28;;;;;;;7.20;5.22;;;;;;;;;;5115675;28;20108;-80
2022/07/23 00:46:57;;;;;;;9.65;5.38;;;;;;;;;;5115428;28;20093;-81
2022/07/23 00:49:28;;;;;;;7.35;4.85;;;;;;;;;;5115322;28;20431;-83
2022/07/23 00:51:54;;;;;;;7.05;4.93;;;;;;;;;;5115488;28;20035;-84
2022/07/23 00:54:22;;;;;;;6.75;5.25;;;;;;;;;;5115478;28;20027;-84
2022/07/23 00:56:48;;;;;;;8.38;5.50;;;;;;;;;;5097232;28;20482;-83
2022/07/23 00:59:14;;;;;;;6.50;5.32;;;;;;;;;;5115349;28;20058;-84
2022/07/23 01:01:41;;;;;;;10.95;6.32;;;;;;;;;;5115080;28;20462;-81
2022/07/23 01:04:07;;;;;;;9.93;6.70;;;;;;;;;;5115233;28;20467;-84
2022/07/23 01:06:37;;;;;;;10.60;6.20;;;;;;;;;;5115118;28;20107;-81
2022/07/23 01:09:04;;;;;;;10.18;6.18;;;;;;;;;;5115138;28;20043;-84
2022/07/23 01:11:30;;;;;;;8.68;5.63;;;;;;;;;;5115055;28;20059;-80
2022/07/23 01:13:56;;;;;;;6.72;5.70;;;;;;;;;;5115187;28;20118;-82
2022/07/23 01:16:22;;;;;;;8.30;4.95;;;;;;;;;;5114944;28;20039;-84
2022/07/23 01:18:48;;;;;;;8.60;5.40;;;;;;;;;;5114572;28;20026;-83
2022/07/23 01:21:18;;;;;;;10.48;5.43;;;;;;;;;;5114847;28;20036;-79
2022/07/23 01:23:44;;;;;;;8.32;4.93;;;;;;;;;;5114922;28;20023;-82
2022/07/23 01:26:10;;;;;;;10.35;5.60;;;;;;;;;;5114768;28;20031;-81
2022/07/23 01:28:36;;;;;;;7.45;5.07;;;;;;;;;;5114741;28;20478;-82
2022/07/23 01:31:03;;;;;;;7.22;4.68;;;;;;;;;;5114900;28;20062;-80
2022/07/23 01:33:29;;;;;;;9.73;5.70;;;;;;;;;;5096195;28;20031;-81
2022/07/23 01:35:55;;;;;;;7.60;5.28;;;;;;;;;;5114558;28;20031;-83
2022/07/23 01:38:21;;;;;;;5.75;5.15;;;;;;;;;;5114637;28;20133;-84
2022/07/23 01:40:47;;;;;;;8.20;5.15;;;;;;;;;;5114410;28;20055;-81
2022/07/23 01:43:13;;;;;;;7.47;6.30;;;;;;;;;;5114731;28;20027;-81
2022/07/23 01:45:39;;;;;;;10.65;5.10;;;;;;;;;;5114220;28;20024;-82
2022/07/23 01:48:06;;;;;;;9.38;5.43;;;;;;;;;;5096130;28;20406;-83
2022/07/23 01:50:32;;;;;;;9.45;5.93;;;;;;;;;;5114340;28;20081;-82
2022/07/23 01:52:58;;;;;;;6.22;5.20;;;;;;;;;;5096107;28;20074;-82
2022/07/23 01:55:24;;;;;;;6.78;5.60;;;;;;;;;;5114630;28;20111;-79
2022/07/23 01:57:50;;;;;;;8.10;5.65;;;;;;;;;;5113845;28;20038;-83
2022/07/23 02:00:16;;;;;;;6.57;4.78;;;;;;;;;;5114392;28;20042;-83
2022/07/23 02:02:42;;;;;;;7.97;4.78;;;;;;;;;;5095675;28;20023;-80
2022/07/23 02:05:09;;;;;;;5.45;4.10;;;;;;;;;;5095683;28;20390;-84
2022/07/23 02:07:35;;;;;;;6.68;4.60;;;;;;;;;;5113787;28;20043;-82
2022/07/23 02:10:01;;;;;;;7.07;4.45;;;;;;;;;;5113742;28;20028;-82
2022/07/23 02:12:27;;;;;;;7.47;4.78;;;;;;;;;;5113961;28;20063;-83
2022/07/23 02:14:53;;;;;;;12.45;5.30;;;;;;;;;;5113944;28;20031;-82
2022/07/23 02:17:19;;;;;;;6.00;4.32;;;;;;;;;;5114163;28;20032;-81
2022/07/23 02:19:45;;;;;;;6.50;4.80;;;;;;;;;;5113603;28;20023;-80
2022/07/23 02:22:11;;;;;;;6.70;5.00;;;;;;;;;;5113712;28;20032;-80
2022/07/23 02:24:37;;;;;;;7.32;4.93;;;;;;;;;;5113587;28;20027;-84
2022/07/23 02:27:03;;;;;;;7.03;5.00;;;;;;;;;;5113320;28;20169;-81
2022/07/23 02:29:29;;;;;;;8.23;5.15;;;;;;;;;;5095471;28;20024;-81
2022/07/23 02:31:56;;;;;;;11.77;5.72;;;;;;;;;;5113095;28;20051;-84
2022/07/23 02:34:22;;;;;;;8.85;5.15;;;;;;;;;;5113458;28;20489;-84
2022/07/23 02:36:48;;;;;;;6.75;5.40;;;;;;;;;;5113351;28;20023;-82
2022/07/23 02:39:14;;;;;;;7.90;4.57;;;;;;;;;;5113334;28;20042;-83
2022/07/23 02:41:40;;;;;;;6.93;5.00;;;;;;;;;;5095222;28;20027;-84
2022/07/23 02:44:06;;;;;;;8.30;4.93;;;;;;;;;;5113419;28;20062;-82
2022/07/23 02:46:32;;;;;;;6.88;4.90;;;;;;;;;;5113547;28;20085;-83
2022/07/23 02:48:58;;;;;;;5.80;4.60;;;;;;;;;;5094821;28;20024;-82
2022/07/23 02:51:24;;;;;;;7.70;4.45;;;;;;;;;;5113258;28;20035;-84
2022/07/23 02:53:50;;;;;;;5.95;4.68;;;;;;;;;;5113033;28;20027;-81
2022/07/23 02:56:17;;;;;;;7.53;5.03;;;;;;;;;;5094897;28;20031;-83
2022/07/23 02:58:43;;;;;;;7.43;5.07;;;;;;;;;;5094239;28;20028;-85
2022/07/23 03:01:09;;;;;;;7.25;4.85;;;;;;;;;;5112958;28;20480;-85
2022/07/23 03:03:35;;;;;;;5.00;4.47;;;;;;;;;;5113299;28;20122;-83
2022/07/23 03:06:01;;;;;;;8.88;5.50;;;;;;;;;;5112817;28;20027;-79
2022/07/23 03:08:27;;;;;;;8.98;5.40;;;;;;;;;;5112997;28;20024;-84
2022/07/23 03:10:53;;;;;;;7.22;5.20;;;;;;;;;;5113058;28;20024;-81
2022/07/23 03:13:19;;;;;;;9.20;5.07;;;;;;;;;;5112418;28;20027;-82
2022/07/23 03:15:45;;;;;;;7.70;4.95;;;;;;;;;;5112811;28;20494;-81
2022/07/23 03:18:12;;;;;;;5.65;5.10;;;;;;;;;;5112558;28;20042;-80
2022/07/23 03:20:38;;;;;;;7.95;4.95;;;;;;;;;;5112790;28;20031;-83
2022/07/23 03:23:04;;;;;;;8.93;5.22;;;;;;;;;;5112600;28;20532;-83
2022/07/23 03:25:30;;;;;;;8.52;6.30;;;;;;;;;;5112528;28;20463;-82
2022/07/23 03:27:56;;;;;;;7.97;6.00;;;;;;;;;;5112636;28;20028;-83
2022/07/23 03:30:22;;;;;;;7.30;5.28;;;;;;;;;;5112690;28;20059;-85
2022/07/23 03:32:48;;;;;;;6.72;5.28;;;;;;;;;;5112904;28;20023;-82
2022/07/23 03:35:14;;;;;;;8.75;5.22;;;;;;;;;;5112264;28;20046;-84
2022/07/23 03:37:40;;;;;;;8.07;5.93;;;;;;;;;;5112521;28;20024;-82
2022/07/23 03:40:07;;;;;;;14.63;6.28;;;;;;;;;;5112512;28;20497;-80
2022/07/23 03:42:33;;;;;;;11.75;5.35;;;;;;;;;;5112478;28;20027;-79
2022/07/23 03:44:59;;;;;;;9.40;5.25;;;;;;;;;;5094140;28;20023;-84
2022/07/23 03:47:25;;;;;;;14.77;5.70;;;;;;;;;;5112418;28;20035;-83
2022/07/23 03:49:51;;;;;;;7.97;5.15;;;;;;;;;;5094180;28;20038;-82
2022/07/23 03:52:17;;;;;;;8.88;6.13;;;;;;;;;;5112036;28;20030;-83
2022/07/23 03:54:44;;;;;;;9.70;5.88;;;;;;;;;;5112398;28;20103;-80
2022/07/23 03:57:10;;;;;;;9.57;6.25;;;;;;;;;;5112361;28;20038;-83
2022/07/23 03:59:36;;;;;;;11.30;6.88;;;;;;;;;;5112134;28;20024;-82
2022/07/23 04:02:02;;;;;;;7.53;5.70;;;;;;;;;;5112366;28;20031;-81
2022/07/23 04:04:28;;;;;;;8.85;5.70;;;;;;;;;;5112117;28;20122;-82
2022/07/23 04:06:54;;;;;;;9.45;6.72;;;;;;;;;;5112380;28;20031;-80
2022/07/23 04:09:20;;;;;;;8.57;6.90;;;;;;;;;;5112287;28;20028;-85
2022/07/23 04:11:46;;;;;;;5.38;4.75;;;;;;;;;;5115569;28;20020;-80
2022/07/23 04:14:12;;;;;;;8.43;4.90;;;;;;;;;;5116274;28;20524;-81
2022/07/23 04:16:39;;;;;;;6.95;6.18;;;;;;;;;;5115877;28;20111;-83
2022/07/23 04:19:05;;;;;;;15.70;9.07;;;;;;;;;;5116168;28;20034;-81
2022/07/23 04:21:31;;;;;;;11.05;8.50;;;;;;;;;;5114949;28;20032;-82
2022/07/23 04:23:57;;;;;;;8.90;5.18;;;;;;;;;;5116488;28;20046;-81
2022/07/23 04:26:23;;;;;;;26.75;14.10;;;;;;;;;;5116067;28;20486;-80
2022/07/23 04:28:49;;;;;;;13.35;10.55;;;;;;;;;;5116026;28;20065;-82
2022/07/23 04:31:15;;;;;;;9.48;6.68;;;;;;;;;;5115750;28;20465;-82
2022/07/23 04:33:41;;;;;;;9.38;5.00;;;;;;;;;;5115866;28;20026;-82
2022/07/23 04:36:07;;;;;;;6.05;4.97;;;;;;;;;;5115497;28;20032;-79
2022/07/23 04:38:34;;;;;;;5.85;5.25;;;;;;;;;;5115683;28;20084;-80
2022/07/23 04:41:00;;;;;;;6.28;4.88;;;;;;;;;;5115889;28;20023;-80
2022/07/23 04:43:26;;;;;;;9.32;6.85;;;;;;;;;;5115964;28;20031;-82
2022/07/23 04:45:53;;;;;;;9.15;7.20;;;;;;;;;;5115747;28;20035;-81
2022/07/23 04:48:19;;;;;;;9.27;5.60;;;;;;;;;;5115725;28;20483;-81
2022/07/23 04:50:45;;;;;;;6.95;5.40;;;;;;;;;;5115517;28;20042;-81
2022/07/23 04:53:11;;;;;;;21.48;16.52;;;;;;;;;;5115705;28;20027;-84
2022/07/23 04:55:37;;;;;;;8.60;6.78;;;;;;;;;;5115558;28;20367;-81
2022/07/23 04:58:03;;;;;;;10.82;6.38;;;;;;;;;;5115627;28;20031;-79
2022/07/23 05:00:29;;;;;;;17.15;10.27;;;;;;;;;;5115537;28;20030;-82
2022/07/23 05:02:55;;;;;;;33.75;25.55;;;;;;;;;;5115316;28;20042;-80
2022/07/23 05:05:21;;;;;;;38.25;31.25;;;;;;;;;;5115420;28;20063;-83
2022/07/23 05:07:47;;;;;;;34.40;27.80;;;;;;;;;;5115013;28;20031;-80
2022/07/23 05:10:13;;;;;;;13.13;9.13;;;;;;;;;;5115296;28;20031;-83
2022/07/23 05:12:40;;;;;;;8.25;7.05;;;;;;;;;;5115355;28;20024;-83
2022/07/23 05:15:06;;;;;;;7.75;5.72;;;;;;;;;;5115002;28;20034;-80
2022/07/23 05:17:32;;;;;;;6.30;5.60;;;;;;;;;;5115252;28;20063;-81
2022/07/23 05:19:58;;;;;;;8.93;6.40;;;;;;;;;;5114807;28;20023;-79
2022/07/23 05:22:24;;;;;;;8.25;5.50;;;;;;;;;;5114258;28;20031;-81
2022/07/23 05:24:50;;;;;;;9.52;5.95;;;;;;;;;;5114861;28;20489;-83
2022/07/23 05:27:16;;;;;;;8.40;6.30;;;;;;;;;;5114842;28;20043;-85
2022/07/23 05:29:43;;;;;;;18.80;9.38;;;;;;;;;;5114871;28;20024;-81
2022/07/23 05:32:09;;;;;;;8.55;7.30;;;;;;;;;;5114605;28;20145;-83
2022/07/23 05:34:35;;;;;;;15.40;12.00;;;;;;;;;;5101340;28;20024;-82
2022/07/23 05:37:01;;;;;;;14.93;11.63;;;;;;;;;;5104925;28;20053;-79
2022/07/23 05:39:27;;;;;;;11.70;6.50;;;;;;;;;;5114414;28;20027;-81
2022/07/23 05:41:53;;;;;;;9.98;6.75;;;;;;;;;;5096277;28;20489;-82
2022/07/23 05:44:20;;;;;;;17.42;13.48;;;;;;;;;;5114373;28;20027;-80
2022/07/23 05:46:46;;;;;;;10.48;9.45;;;;;;;;;;5101776;28;20042;-82
2022/07/23 05:49:13;;;;;;;9.18;5.72;;;;;;;;;;5098616;28;20388;-81
2022/07/23 05:51:39;;;;;;;9.25;6.93;;;;;;;;;;5114287;28;20027;-84
2022/07/23 05:54:05;;;;;;;24.90;7.97;;;;;;;;;;5114700;28;20041;-81
2022/07/23 05:56:31;;;;;;;7.00;5.30;;;;;;;;;;5107221;28;20062;-80
2022/07/23 05:58:57;;;;;;;9.80;5.30;;;;;;;;;;5107946;28;20023;-79
2022/07/23 06:01:23;;;;;;;8.80;5.35;;;;;;;;;;5112608;28;20034;-83
2022/07/23 06:03:49;;;;;;;6.45;5.03;;;;;;;;;;5113915;28;20027;-79
2022/07/23 06:06:15;;;;;;;7.32;5.80;;;;;;;;;;5114089;28;20028;-82
2022/07/23 06:08:42;;;;;;;9.93;8.15;;;;;;;;;;5114128;28;20050;-82
2022/07/23 06:11:08;;;;;;;13.77;8.48;;;;;;;;;;5095770;28;20034;-82
2022/07/23 06:13:34;;;;;;;7.80;6.18;;;;;;;;;;5113651;28;20034;-81
2022/07/23 06:16:00;;;;;;;6.43;5.20;;;;;;;;;;5114140;28;20039;-82
2022/07/23 06:18:26;;;;;;;10.77;5.05;;;;;;;;;;5113321;28;20106;-81
2022/07/23 06:20:52;;;;;;;7.07;5.40;;;;;;;;;;5114193;28;20027;-82
2022/07/23 06:23:18;;;;;;;7.65;4.47;;;;;;;;;;5114108;28;20072;-82
2022/07/23 06:25:44;;;;;;;6.80;4.80;;;;;;;;;;5113598;28;20034;-82
2022/07/23 06:28:10;;;;;;;5.97;5.18;;;;;;;;;;5095678;28;20039;-84
2022/07/23 06:30:36;;;;;;;7.95;6.25;;;;;;;;;;5113498;28;20805;-82
2022/07/23 06:33:03;;;;;;;16.92;13.68;;;;;;;;;;5112813;28;20035;-82
2022/07/23 06:35:29;;;;;;;8.13;7.32;;;;;;;;;;5113566;28;20027;-81
2022/07/23 06:37:55;;;;;;;6.18;5.50;;;;;;;;;;5113835;28;20102;-83
2022/07/23 06:40:22;;;;;;;7.88;5.18;;;;;;;;;;5113220;27;20066;-80
2022/07/23 06:42:51;;;;;;;7.20;5.00;;;;;;;;;;5113577;28;20051;-81
2022/07/23 06:45:17;;;;;;;5.43;4.85;;;;;;;;;;5113526;28;20386;-81
2022/07/23 06:47:44;;;;;;;19.17;17.23;;;;;;;;;;5112917;28;20127;-84
2022/07/23 06:50:10;;;;;;;12.65;7.38;;;;;;;;;;5113031;28;20024;-81
2022/07/23 06:52:36;;;;;;;8.15;5.85;;;;;;;;;;5113195;28;20031;-80
2022/07/23 06:55:03;;;;;;;9.50;5.07;;;;;;;;;;5113132;28;20027;-81
2022/07/23 06:57:29;;;;;;;11.50;7.40;;;;;;;;;;5113287;28;20035;-83
2022/07/23 06:59:55;;;;;;;7.90;5.00;;;;;;;;;;5113269;28;20417;-82
2022/07/23 07:02:21;;;;;;;7.72;5.43;;;;;;;;;;5112955;28;20020;-82
2022/07/23 07:04:47;;;;;;;7.72;5.28;;;;;;;;;;5112993;28;20027;-82
2022/07/23 07:07:13;;;;;;;19.20;17.23;;;;;;;;;;5112605;28;20035;-81
2022/07/23 07:09:39;;;;;;;11.13;10.00;;;;;;;;;;5112825;28;20020;-84
2022/07/23 07:12:05;;;;;;;8.90;5.82;;;;;;;;;;5113352;28;20367;-81
2022/07/23 07:14:31;;;;;;;7.65;5.72;;;;;;;;;;5113018;28;20032;-81
2022/07/23 07:16:57;;;;;;;7.20;5.35;;;;;;;;;;5113061;28;20031;-82
2022/07/23 07:19:24;;;;;;;7.47;6.50;;;;;;;;;;5112385;28;20376;-84
2022/07/23 07:21:50;;;;;;;8.68;5.45;;;;;;;;;;5112822;28;20034;-81
2022/07/23 07:24:16;;;;;;;7.47;5.60;;;;;;;;;;5112926;28;20032;-79
2022/07/23 07:26:42;;;;;;;6.78;5.68;;;;;;;;;;5112311;28;20058;-82
2022/07/23 07:29:08;;;;;;;6.55;4.82;;;;;;;;;;5112722;28;20024;-81
2022/07/23 07:31:34;;;;;;;8.38;4.88;;;;;;;;;;5113139;28;20044;-78
2022/07/23 07:34:00;;;;;;;10.52;5.63;;;;;;;;;;5112683;28;20034;-82
2022/07/23 07:36:27;;;;;;;5.93;4.78;;;;;;;;;;5113871;28;20071;-81
2022/07/23 07:38:53;;;;;;;7.30;4.97;;;;;;;;;;5112873;28;20119;-83
2022/07/23 07:41:23;;;;;;;19.83;17.77;;;;;;;;;;5112277;28;20380;-81
2022/07/23 07:43:49;;;;;;;17.35;14.38;;;;;;;;;;5112872;28;20024;-83
2022/07/23 07:46:15;;;;;;;10.48;7.13;;;;;;;;;;5117176;28;20043;-81
2022/07/23 07:48:42;;;;;;;8.52;5.95;;;;;;;;;;5116537;28;20367;-80
2022/07/23 07:51:08;;;;;;;9.32;5.32;;;;;;;;;;5098511;28;20419;-80
2022/07/23 07:53:34;;;;;;;8.68;6.28;;;;;;;;;;5117155;28;20019;-82
2022/07/23 07:56:00;;;;;;;9.13;5.15;;;;;;;;;;5116395;28;20497;-81
2022/07/23 07:58:26;;;;;;;8.10;4.88;;;;;;;;;;5116970;28;20110;-83
2022/07/23 08:00:52;;;;;;;9.68;6.72;;;;;;;;;;5116753;28;20034;-82
2022/07/23 08:03:18;;;;;;;7.53;5.32;;;;;;;;;;5116709;28;20026;-82
2022/07/23 08:05:45;;;;;;;7.75;5.18;;;;;;;;;;5116460;28;20080;-79
2022/07/23 08:08:14;;;;;;;10.43;5.22;;;;;;;;;;5116759;28;20040;-82
2022/07/23 08:10:41;;;;;;;14.77;6.45;;;;;;;;;;5115857;28;20028;-86
2022/07/23 08:13:07;;;;;;;7.30;5.35;;;;;;;;;;5097748;28;20054;-82
2022/07/23 08:15:33;;;;;;;10.35;5.32;;;;;;;;;;5116191;28;20036;-83
2022/07/23 08:17:59;;;;;;;7.55;4.70;;;;;;;;;;5116047;28;20494;-81
2022/07/23 08:20:26;;;;;;;7.70;4.57;;;;;;;;;;5116377;28;20080;-82
2022/07/23 08:22:53;;;;;;;5.82;4.60;;;;;;;;;;5116071;28;20092;-83
2022/07/23 08:25:24;;;;;;;5.57;5.03;;;;;;;;;;5116235;28;20028;-79
2022/07/23 08:27:51;;;;;;;5.38;4.30;;;;;;;;;;5115739;28;20027;-82
2022/07/23 08:30:17;;;;;;;7.32;5.22;;;;;;;;;;5115802;28;20051;-82
2022/07/23 08:32:50;;;;;;;12.55;5.30;;;;;;;;;;5115798;28;20114;-83
2022/07/23 08:35:24;;;;;;;7.30;5.15;;;;;;;;;;5115903;28;20478;-81
2022/07/23 08:37:50;;;;;;;;;;;;;;;;;;5097814;28;20042;-85
2022/07/23 08:40:16;;;;;;;8.15;5.15;;;;;;;;;;5116019;28;19912;-81
2022/07/23 08:42:43;;;;;;;6.03;4.70;;;;;;;;;;5114535;28;20027;-81
2022/07/23 08:45:09;;;;;;;6.93;5.40;;;;;;;;;;5112156;28;20094;-83
2022/07/23 08:47:38;;;;;;;5.10;4.25;;;;;;;;;;5096270;28;20039;-82
2022/07/23 08:50:04;;;;;;;6.50;5.15;;;;;;;;;;5114725;28;20501;-79
2022/07/23 08:52:33;;;;;;;6.05;5.30;;;;;;;;;;5115425;28;20498;-82
2022/07/23 08:55:00;;;;;;;7.82;4.75;;;;;;;;;;5115138;28;20028;-85
2022/07/23 08:57:26;;;;;;;5.47;4.72;;;;;;;;;;5114662;28;20016;-80
2022/07/23 08:59:52;;;;;;;5.93;4.40;;;;;;;;;;5115234;28;20023;-81
2022/07/23 09:02:19;;;;;;;6.50;5.05;;;;;;;;;;5097187;28;20474;-79
2022/07/23 09:04:45;;;;;;;5.45;4.18;;;;;;;;;;5114882;28;20067;-82
2022/07/23 09:07:11;;;;;;;8.20;5.35;;;;;;;;;;5114662;28;20115;-81
2022/07/23 09:09:37;;;;;;;6.95;4.35;;;;;;;;;;5114297;28;20027;-83
2022/07/23 09:12:07;;;;;;;7.43;5.65;;;;;;;;;;5114412;28;20471;-82
2022/07/23 09:14:52;;;;;;;5.43;4.40;;;;;;;;;;5115100;28;20027;-83
2022/07/23 09:17:18;;;;;;;16.75;15.18;;;;;;;;;;5115047;28;20031;-79
2022/07/23 09:19:45;;;;;;;9.27;6.85;;;;;;;;;;5114825;28;20076;-83
2022/07/23 09:22:21;;;;;;;7.50;5.22;;;;;;;;;;5114798;28;20023;-81
2022/07/23 09:25:08;;;;;;;5.45;4.30;;;;;;;;;;5114781;28;20023;-81
2022/07/23 09:27:52;;;;;;;6.88;4.30;;;;;;;;;;5114779;28;20035;-80
2022/07/23 09:30:18;;;;;;;7.03;4.72;;;;;;;;;;5111309;28;20055;-82
2022/07/23 09:32:44;;;;;;;7.43;5.28;;;;;;;;;;5114683;28;20107;-80
2022/07/23 09:35:11;;;;;;;7.20;4.75;;;;;;;;;;5114846;28;20390;-82
2022/07/23 09:37:37;;;;;;;7.03;4.60;;;;;;;;;;5114932;28;20080;-83
2022/07/23 09:40:07;;;;;;;7.25;4.85;;;;;;;;;;5114308;28;20055;-80
2022/07/23 09:42:33;;;;;;;5.57;4.70;;;;;;;;;;5114644;28;20020;-82
2022/07/23 09:45:00;;;;;;;6.25;4.10;;;;;;;;;;5114466;28;20028;-81
2022/07/23 09:47:30;;;;;;;6.13;4.80;;;;;;;;;;5114526;28;20040;-82
2022/07/23 09:50:00;;;;;;;6.15;4.90;;;;;;;;;;5114248;28;20034;-80
2022/07/23 09:52:28;;;;;;;7.47;4.82;;;;;;;;;;5114835;28;20028;-81
2022/07/23 09:54:59;;;;;;;4.43;4.03;;;;;;;;;;5114468;28;20024;-82
2022/07/23 09:57:26;;;;;;;6.72;4.47;;;;;;;;;;5114630;28;20037;-81
2022/07/23 09:59:53;;;;;;;7.95;5.07;;;;;;;;;;5114256;28;20467;-81
2022/07/23 10:02:20;;;;;;;7.47;4.78;;;;;;;;;;5114461;28;20047;-80
2022/07/23 10:04:46;;;;;;;9.90;4.90;;;;;;;;;;5114475;28;20054;-85
2022/07/23 10:07:14;;;;;;;7.97;5.03;;;;;;;;;;5113498;28;20046;-82
2022/07/23 10:09:41;;;;;;;6.10;4.63;;;;;;;;;;5114070;28;20024;-81
2022/07/23 10:12:19;;;;;;;5.93;4.85;;;;;;;;;;5114137;28;20106;-81
2022/07/23 10:14:46;;;;;;;8.20;6.32;;;;;;;;;;5114118;28;20028;-82
2022/07/23 10:17:14;;;;;;;6.60;4.28;;;;;;;;;;5112890;28;20036;-80
2022/07/23 10:19:41;;;;;;;5.70;4.55;;;;;;;;;;5114241;28;20435;-79
2022/07/23 10:22:08;;;;;;;6.18;4.53;;;;;;;;;;5094833;28;20466;-80
2022/07/23 10:24:37;;;;;;;5.07;4.40;;;;;;;;;;5114177;28;20023;-81
2022/07/23 10:27:03;;;;;;;7.07;4.43;;;;;;;;;;5113795;28;20044;-80
2022/07/23 10:29:48;;;;;;;6.90;3.85;;;;;;;;;;5113500;28;20027;-79
2022/07/23 10:32:27;;;;;;;7.15;4.55;;;;;;;;;;5113639;28;20517;-83
2022/07/23 10:34:59;;;;;;;7.63;4.82;;;;;;;;;;5095210;28;20031;-82
2022/07/23 10:37:43;;;;;;;6.32;4.97;;;;;;;;;;5113447;28;20059;-82
2022/07/23 10:40:10;;;;;;;7.05;4.32;;;;;;;;;;5113673;28;20023;-80
2022/07/23 10:42:36;;;;;;;6.13;4.65;;;;;;;;;;5113465;28;20031;-80
2022/07/23 10:45:22;;;;;;;5.30;4.20;;;;;;;;;;5113216;28;20462;-79
2022/07/23 10:47:50;;;;;;;6.63;4.28;;;;;;;;;;5113360;28;20035;-82
2022/07/23 10:50:34;;;;;;;8.48;4.70;;;;;;;;;;5113166;28;20474;-78
2022/07/23 10:55:52;;;;;;;7.72;4.70;;;;;;;;;;5113023;28;20031;-82
2022/07/23 10:58:38;;;;;;;6.10;4.55;;;;;;;;;;5112657;28;20410;-79
2022/07/23 11:01:24;;;;;;;8.20;4.60;;;;;;;;;;5094563;28;20399;-82
2022/07/23 11:03:58;;;;;;;8.23;5.03;;;;;;;;;;5112012;28;20028;-80
2022/07/23 11:06:24;;;;;;;7.20;4.75;;;;;;;;;;5111724;28;20027;-81
2022/07/23 11:09:10;;;;;;;9.90;5.38;;;;;;;;;;5113168;28;20387;-79
2022/07/23 11:11:36;;;;;;;10.40;5.15;;;;;;;;;;5113097;28;20458;-82
2022/07/23 11:14:02;;;;;;;9.35;4.57;;;;;;;;;;5112855;28;20024;-83
2022/07/23 11:16:28;;;;;;;6.47;5.72;;;;;;;;;;5113128;28;20023;-79
2022/07/23 11:18:55;;;;;;;5.80;4.47;;;;;;;;;;5112453;28;20020;-81
2022/07/23 11:21:29;;;;;;;5.78;4.00;;;;;;;;;;5112651;28;20020;-79
2022/07/23 11:23:58;;;;;;;9.15;5.70;;;;;;;;;;5112947;28;20073;-79
2022/07/23 11:26:43;;;;;;;10.82;4.80;;;;;;;;;;5094240;28;20024;-80
2022/07/23 11:29:45;;;;;;;8.05;4.38;;;;;;;;;;5112653;28;20032;-83
2022/07/23 11:32:17;;;;;;;6.60;4.40;;;;;;;;;;5092487;28;20046;-79
2022/07/23 11:34:46;;;;;;;8.30;4.57;;;;;;;;;;5091850;28;20043;-81
2022/07/23 11:37:13;;;;;;;7.60;3.72;;;;;;;;;;5092334;28;20067;-82
2022/07/23 11:39:39;;;;;;;9.07;4.03;;;;;;;;;;5092482;28;20020;-82
2022/07/23 11:42:07;;;;;;;7.25;4.30;;;;;;;;;;5092441;28;20116;-81
2022/07/23 11:44:34;;;;;;;12.15;5.07;;;;;;;;;;5092272;28;20453;-81
2022/07/23 11:47:01;;;;;;;6.88;4.30;;;;;;;;;;5090143;28;20036;-84
2022/07/23 11:49:27;;;;;;;7.43;3.95;;;;;;;;;;5087711;28;20021;-84
2022/07/23 11:52:07;;;;;;;7.60;4.38;;;;;;;;;;5072018;28;20059;-81
2022/07/23 11:54:34;;;;;;;6.30;4.20;;;;;;;;;;5070795;28;20028;-83
2022/07/23 11:57:00;;;;;;;8.50;4.00;;;;;;;;;;5087627;28;20028;-85
2022/07/23 11:59:27;;;;;;;8.65;4.00;;;;;;;;;;5088742;28;21888;-80
2022/07/23 12:02:00;;;;;;;4.85;3.70;;;;;;;;;;5092123;28;20024;-80
2022/07/23 12:04:39;;;;;;;6.95;4.30;;;;;;;;;;5092124;28;20471;-82
2022/07/23 12:07:05;;;;;;;7.47;4.53;;;;;;;;;;5091765;28;20570;-82
2022/07/23 12:09:34;;;;;;;9.95;4.50;;;;;;;;;;5092183;28;20498;-80
2022/07/23 12:12:01;;;;;;;5.35;4.28;;;;;;;;;;5091851;28;20021;-79
2022/07/23 12:14:27;;;;;;;7.68;4.22;;;;;;;;;;5091949;28;20248;-79
2022/07/23 12:17:09;;;;;;;8.10;4.47;;;;;;;;;;5092077;28;20039;-80
2022/07/23 12:19:35;;;;;;;8.68;4.10;;;;;;;;;;5091806;28;20185;-82
2022/07/23 12:22:02;;;;;;;8.88;4.38;;;;;;;;;;5091987;28;20073;-79
2022/07/23 12:24:28;;;;;;;8.48;4.45;;;;;;;;;;5091944;28;20467;-78
2022/07/23 12:27:13;;;;;;;7.63;4.72;;;;;;;;;;5091717;28;20036;-80
2022/07/23 12:29:39;;;;;;;11.43;5.10;;;;;;;;;;5073617;28;20115;-82
2022/07/23 12:32:24;;;;;;;10.20;4.55;;;;;;;;;;5093843;28;20126;-78
2022/07/23 12:35:07;;;;;;;9.75;4.63;;;;;;;;;;5095789;28;20034;-81
2022/07/23 12:37:33;;;;;;;9.13;4.38;;;;;;;;;;5095683;28;20502;-83
2022/07/23 12:39:59;;;;;;;7.32;4.65;;;;;;;;;;5095348;28;20372;-81
2022/07/23 12:42:25;;;;;;;9.20;4.88;;;;;;;;;;5095370;28;20035;-82
2022/07/23 12:45:07;;;;;;;8.02;4.60;;;;;;;;;;5095444;28;20024;-83
2022/07/23 12:47:53;;;;;;;10.45;4.75;;;;;;;;;;5095301;28;20024;-80
2022/07/23 12:50:38;;;;;;;10.20;4.45;;;;;;;;;;5095391;28;20078;-82
2022/07/23 12:53:23;;;;;;;10.25;4.63;;;;;;;;;;5095439;28;20020;-81
2022/07/23 12:55:49;;;;;;;10.35;5.05;;;;;;;;;;5095340;28;20020;-80
2022/07/23 12:58:20;;;;;;;8.25;3.75;;;;;;;;;;5076948;28;20098;-81
2022/07/23 13:00:50;;;;;;;7.57;4.32;;;;;;;;;;5093359;28;20483;-81
2022/07/23 13:03:27;;;;;;;7.53;4.18;;;;;;;;;;5095283;28;20526;-82
2022/07/23 13:05:53;;;;;;;11.55;4.40;;;;;;;;;;5095035;28;20471;-80
2022/07/23 13:08:19;;;;;;;7.57;4.75;;;;;;;;;;5095031;28;20035;-79
2022/07/23 13:10:50;;;;;;;10.95;4.47;;;;;;;;;;5094905;28;20061;-80
2022/07/23 13:13:17;;;;;;;8.68;4.20;;;;;;;;;;5095068;28;20036;-80
2022/07/23 13:15:43;;;;;;;8.98;4.45;;;;;;;;;;5094748;28;20032;-82
2022/07/23 13:18:10;;;;;;;7.53;3.70;;;;;;;;;;5095003;28;20099;-81
2022/07/23 13:20:38;;;;;;;9.25;4.68;;;;;;;;;;5094927;28;20028;-79
2022/07/23 13:23:04;;;;;;;6.65;4.15;;;;;;;;;;5094169;28;20111;-81
2022/07/23 13:25:30;;;;;;;7.55;4.20;;;;;;;;;;5094566;28;20035;-81
2022/07/23 13:27:56;;;;;;;6.75;4.03;;;;;;;;;;5094403;28;20403;-83
2022/07/23 13:30:22;;;;;;;7.30;4.03;;;;;;;;;;5094519;28;20441;-81
2022/07/23 13:32:49;;;;;;;6.47;4.05;;;;;;;;;;5094389;28;20126;-82
2022/07/23 13:35:15;;;;;;;15.05;5.43;;;;;;;;;;5094625;28;20020;-82
2022/07/23 13:37:41;;;;;;;7.25;3.80;;;;;;;;;;5094226;28;20028;-83
2022/07/23 13:40:07;;;;;;;11.30;5.13;;;;;;;;;;5094381;28;20020;-80
2022/07/23 13:42:34;;;;;;;8.98;4.28;;;;;;;;;;5093965;28;20020;-84
2022/07/23 13:45:00;;;;;;;10.23;4.32;;;;;;;;;;5076093;28;20035;-83
2022/07/23 13:47:26;;;;;;;10.35;4.05;;;;;;;;;;5094163;28;20165;-80
2022/07/23 13:49:52;;;;;;;8.80;3.90;;;;;;;;;;5094275;28;20028;-82
2022/07/23 13:52:18;;;;;;;8.60;4.10;;;;;;;;;;5093913;28;20376;-81
2022/07/23 13:54:44;;;;;;;8.63;4.15;;;;;;;;;;5094144;28;20103;-83
2022/07/23 13:57:10;;;;;;;7.90;3.78;;;;;;;;;;5093839;28;20082;-85
2022/07/23 13:59:36;;;;;;;7.20;3.90;;;;;;;;;;5094022;28;20099;-83
2022/07/23 14:02:03;;;;;;;11.35;4.47;;;;;;;;;;5093765;28;20043;-83
2022/07/23 14:04:29;;;;;;;8.95;5.00;;;;;;;;;;5093925;28;20028;-82
2022/07/23 14:06:56;;;;;;;3.92;3.47;;;;;;;;;;5093796;28;20483;-82
2022/07/23 14:09:22;;;;;;;7.60;4.47;;;;;;;;;;5093673;28;20030;-85
2022/07/23 14:11:50;;;;;;;9.48;6.85;;;;;;;;;;5075707;28;20501;-84
2022/07/23 14:14:17;;;;;;;11.10;4.82;;;;;;;;;;5093412;28;20106;-83
2022/07/23 14:16:43;;;;;;;7.00;4.05;;;;;;;;;;5093810;28;20547;-85
2022/07/23 14:19:10;;;;;;;8.02;4.05;;;;;;;;;;5093417;28;20064;-84
2022/07/23 14:21:36;;;;;;;8.95;3.55;;;;;;;;;;5093419;28;20032;-82
2022/07/23 14:24:02;;;;;;;8.65;4.45;;;;;;;;;;5093496;28;20036;-82
2022/07/23 14:26:29;;;;;;;7.68;4.10;;;;;;;;;;5093298;28;20053;-85
2022/07/23 14:28:55;;;;;;;8.77;3.80;;;;;;;;;;5075284;28;20388;-82
2022/07/23 14:31:21;;;;;;;9.35;4.53;;;;;;;;;;5107062;28;20048;-82
2022/07/23 14:33:47;;;;;;;6.97;3.60;;;;;;;;;;5113731;28;20379;-85
2022/07/23 14:36:13;;;;;;;9.10;4.00;;;;;;;;;;5113344;28;20055;-82
2022/07/23 14:38:39;;;;;;;6.78;3.80;;;;;;;;;;5113616;28;20023;-81
2022/07/23 14:41:07;;;;;;;6.90;3.83;;;;;;;;;;5113533;28;20035;-82
2022/07/23 14:43:34;;;;;;;5.78;3.58;;;;;;;;;;5113467;28;20023;-82
2022/07/23 14:46:00;;;;;;;7.72;3.80;;;;;;;;;;5113499;28;20034;-81
2022/07/23 14:48:26;;;;;;;8.23;4.28;;;;;;;;;;5113171;28;20031;-84